Time;durP1;ratioP1;P1;durP2;ratioP2;P2;SDS_P1;SDS_P2;PMS_P1;PMS_P2;Temp;Humidity;BMP_temperature;BMP_pressure;BME280_temperature;BME280_humidity;BME280_pressure;Samples;Min_cycle;Max_cycle;Signal;HPM_P1;HPM_P2
2023/01/10 00:00:34;;;;;;;22.50;3.38;;;5.50;99.90;;;;;;5072163;28;20041;-48
2023/01/10 00:03:05;;;;;;;23.80;3.35;;;5.30;99.90;;;;;;5074565;28;20480;-47
2023/01/10 00:05:31;;;;;;;18.83;3.00;;;5.70;99.90;;;;;;5074481;28;20472;-47
2023/01/10 00:07:57;;;;;;;18.95;4.03;;;5.60;99.90;;;;;;5069807;28;20040;-49
2023/01/10 00:10:24;;;;;;;27.70;3.38;;;5.50;99.90;;;;;;5069706;28;20049;-48
2023/01/10 00:15:35;;;;;;;17.08;3.45;;;5.70;99.90;;;;;;5085991;28;20055;-47
2023/01/10 00:18:01;;;;;;;19.30;3.38;;;5.40;99.90;;;;;;5073238;28;20032;-48
2023/01/10 00:20:26;;;;;;;22.90;3.60;;;5.40;99.90;;;;;;5073618;28;20047;-48
2023/01/10 00:22:52;;;;;;;16.67;3.05;;;5.50;99.90;;;;;;5073163;28;20045;-47
2023/01/10 00:25:20;;;;;;;27.48;3.65;;;5.50;99.90;;;;;;5073245;28;20082;-49
2023/01/10 00:28:18;;;;;;;17.60;3.72;;;5.70;99.90;;;;;;5073102;28;20036;-48
2023/01/10 00:30:40;;;;;;;15.85;3.25;;;5.80;99.90;;;;;;5073348;28;20450;-48
2023/01/10 00:33:06;;;;;;;17.33;3.67;;;5.60;99.90;;;;;;5076400;28;20048;-46
2023/01/10 00:35:33;;;;;;;18.88;3.88;;;5.50;99.90;;;;;;5084038;28;20102;-49
2023/01/10 00:38:04;;;;;;;21.40;3.10;;;5.50;99.90;;;;;;5073325;28;20078;-47
2023/01/10 00:40:31;;;;;;;14.93;2.65;;;5.60;99.90;;;;;;5073443;28;20098;-46
2023/01/10 00:45:46;;;;;;;19.52;3.20;;;6.00;99.90;;;;;;5075718;28;20044;-49
2023/01/10 00:48:13;;;;;;;18.75;3.33;;;5.50;99.90;;;;;;5073566;28;20040;-49
2023/01/10 00:50:40;;;;;;;17.48;3.65;;;5.70;99.90;;;;;;5073440;28;20467;-50
2023/01/10 00:53:06;;;;;;;18.33;3.10;;;5.50;99.90;;;;;;5078246;28;20051;-47
2023/01/10 00:55:33;;;;;;;16.63;3.17;;;5.70;99.90;;;;;;5081395;28;20040;-47
2023/01/10 00:57:59;;;;;;;15.40;3.30;;;5.70;99.90;;;;;;5072150;28;20044;-47
2023/01/10 01:00:25;;;;;;;14.23;2.95;;;5.40;99.90;;;;;;5073400;28;20049;-48
2023/01/10 01:02:50;;;;;;;20.85;3.55;;;5.80;99.90;;;;;;5072886;28;20417;-47
2023/01/10 01:05:17;;;;;;;22.52;2.72;;;6.00;99.90;;;;;;5073105;28;20044;-48
2023/01/10 01:07:43;;;;;;;23.98;3.58;;;5.50;99.90;;;;;;5072772;28;20051;-48
2023/01/10 01:10:27;;;;;;;19.35;3.30;;;5.50;99.90;;;;;;5072864;28;20028;-48
2023/01/10 01:13:11;;;;;;;16.58;3.28;;;5.50;99.90;;;;;;5071882;28;20050;-49
2023/01/10 01:15:37;;;;;;;16.13;2.92;;;5.40;99.90;;;;;;5072830;28;20048;-48
2023/01/10 01:18:04;;;;;;;15.85;2.97;;;5.50;99.90;;;;;;5081756;28;20044;-48
2023/01/10 01:20:30;;;;;;;15.18;3.08;;;5.60;99.90;;;;;;5074176;28;20044;-49
2023/01/10 01:22:56;;;;;;;21.48;2.75;;;5.50;99.90;;;;;;5073410;28;20528;-47
2023/01/10 01:25:22;;;;;;;21.33;3.65;;;5.60;99.90;;;;;;5071603;28;20124;-47
2023/01/10 01:27:48;;;;;;;16.65;2.85;;;5.40;99.90;;;;;;5072494;28;20109;-47
2023/01/10 01:30:14;;;;;;;12.85;3.00;;;5.40;99.90;;;;;;5075810;28;20074;-50
2023/01/10 01:32:40;;;;;;;21.95;3.15;;;5.40;99.90;;;;;;5080976;28;20085;-49
2023/01/10 01:35:08;;;;;;;19.35;3.03;;;5.40;99.90;;;;;;5072388;28;20036;-47
2023/01/10 01:37:34;;;;;;;21.33;3.08;;;5.40;99.90;;;;;;5075052;28;20044;-47
2023/01/10 01:40:00;;;;;;;15.18;2.58;;;5.50;99.90;;;;;;5073579;28;20447;-48
2023/01/10 01:42:30;;;;;;;16.60;2.50;;;5.60;99.90;;;;;;5072520;28;20047;-47
2023/01/10 01:45:22;;;;;;;20.17;3.85;;;5.40;99.90;;;;;;5072709;28;20593;-48
2023/01/10 01:47:51;;;;;;;18.40;2.83;;;5.40;99.90;;;;;;5068608;28;20361;-47
2023/01/10 01:50:20;;;;;;;18.67;3.00;;;5.60;99.90;;;;;;5072318;28;20032;-47
2023/01/10 01:52:48;;;;;;;11.52;2.70;;;5.40;99.90;;;;;;5071934;28;20484;-49
2023/01/10 01:55:14;;;;;;;21.63;3.42;;;5.60;99.90;;;;;;5071932;28;20037;-47
2023/01/10 01:57:40;;;;;;;19.98;3.63;;;5.50;99.90;;;;;;5072172;28;20467;-49
2023/01/10 02:00:06;;;;;;;20.40;3.50;;;5.60;99.90;;;;;;5070894;28;20131;-48
2023/01/10 02:02:37;;;;;;;21.23;3.35;;;5.40;99.90;;;;;;5070739;28;20715;-47
2023/01/10 02:05:07;;;;;;;19.13;3.40;;;5.40;99.90;;;;;;5074155;28;20044;-47
2023/01/10 02:07:37;;;;;;;21.15;2.97;;;5.70;99.90;;;;;;5071470;28;20032;-49
2023/01/10 02:10:14;;;;;;;16.27;2.83;;;5.70;99.90;;;;;;5071972;28;20469;-49
2023/01/10 02:12:41;;;;;;;15.48;3.05;;;5.70;99.90;;;;;;5070116;28;20048;-48
2023/01/10 02:15:09;;;;;;;18.13;3.30;;;5.70;99.90;;;;;;5071790;28;20365;-50
2023/01/10 02:17:35;;;;;;;23.30;3.90;;;5.40;99.90;;;;;;5071542;28;20044;-47
2023/01/10 02:20:09;;;;;;;14.18;3.20;;;5.70;99.90;;;;;;5071423;28;20044;-50
2023/01/10 02:23:29;;;;;;;18.33;3.22;;;5.40;99.90;;;;;;5071752;28;20041;-52
2023/01/10 02:26:07;;;;;;;17.98;2.88;;;5.40;99.90;;;;;;5049224;28;20070;-47
2023/01/10 02:29:07;;;;;;;16.00;2.53;;;5.50;99.90;;;;;;5068237;28;20044;-50
2023/01/10 02:31:51;;;;;;;23.73;3.53;;;5.40;99.90;;;;;;5072924;28;20048;-48
2023/01/10 02:34:35;;;;;;;22.00;3.63;;;5.40;99.90;;;;;;5071200;28;20083;-48
2023/01/10 02:37:22;;;;;;;17.23;2.58;;;5.50;99.90;;;;;;5070017;28;20286;-52
2023/01/10 02:39:58;;;;;;;17.70;3.13;;;5.40;99.90;;;;;;5071012;28;20079;-48
2023/01/10 02:42:42;;;;;;;11.98;2.88;;;5.60;99.90;;;;;;5070079;28;20044;-50
2023/01/10 02:45:33;;;;;;;18.52;3.17;;;5.70;99.90;;;;;;5069840;28;20082;-49
2023/01/10 02:47:59;;;;;;;16.38;3.10;;;5.50;99.90;;;;;;5070144;28;20072;-49
2023/01/10 02:50:48;;;;;;;13.38;2.50;;;5.50;99.90;;;;;;5070989;28;20098;-50
2023/01/10 02:53:36;;;;;;;16.80;3.05;;;5.50;99.90;;;;;;5069961;28;20040;-48
2023/01/10 02:56:14;;;;;;;19.55;3.38;;;5.30;99.90;;;;;;5069380;28;20072;-46
2023/01/10 02:59:13;;;;;;;17.13;3.22;;;5.60;99.90;;;;;;5071063;28;20066;-47
2023/01/10 03:02:12;;;;;;;23.52;3.45;;;5.30;99.90;;;;;;5069717;28;20036;-51
2023/01/10 03:04:56;;;;;;;18.15;2.85;;;5.50;99.90;;;;;;5069780;28;20040;-46
2023/01/10 03:07:28;;;;;;;20.13;3.10;;;5.40;99.90;;;;;;5070549;28;20064;-47
2023/01/10 03:09:58;;;;;;;23.48;3.55;;;5.70;99.90;;;;;;5071086;28;20618;-47
2023/01/10 03:12:31;;;;;;;20.80;3.30;;;5.40;99.90;;;;;;5070508;28;20048;-50
2023/01/10 03:14:59;;;;;;;23.40;3.92;;;5.90;99.90;;;;;;5071088;28;20036;-49
2023/01/10 03:17:27;;;;;;;13.82;3.13;;;5.60;99.90;;;;;;5070619;28;20047;-49
2023/01/10 03:19:59;;;;;;;17.13;3.00;;;5.80;99.90;;;;;;5070888;28;20097;-47
2023/01/10 03:22:27;;;;;;;14.63;2.83;;;5.50;99.90;;;;;;5070734;28;20044;-47
2023/01/10 03:24:56;;;;;;;18.20;3.33;;;5.60;99.90;;;;;;5069387;28;20044;-47
2023/01/10 03:27:40;;;;;;;18.70;3.67;;;5.60;99.90;;;;;;5070584;28;20082;-50
2023/01/10 03:30:06;;;;;;;19.30;3.55;;;5.50;99.90;;;;;;5070531;28;20033;-50
2023/01/10 03:32:33;;;;;;;21.92;2.83;;;5.60;99.90;;;;;;5076964;28;20123;-47
2023/01/10 03:35:00;;;;;;;17.60;3.30;;;5.90;99.90;;;;;;5075558;28;20432;-48
2023/01/10 03:37:53;;;;;;;20.70;4.45;;;6.00;99.90;;;;;;5070312;28;20067;-48
2023/01/10 03:40:35;;;;;;;14.93;3.17;;;5.80;99.90;;;;;;5070591;28;20072;-47
2023/01/10 03:46:03;;;;;;;23.27;3.28;;;5.70;99.90;;;;;;5070085;28;20040;-47
2023/01/10 03:48:35;;;;;;;16.13;3.33;;;5.70;99.90;;;;;;5077071;28;20043;-50
2023/01/10 03:51:03;;;;;;;13.88;3.72;;;6.20;99.90;;;;;;5056291;28;20033;-51
2023/01/10 03:53:31;;;;;;;16.77;3.60;;;5.60;99.90;;;;;;5074560;28;20040;-49
2023/01/10 03:55:57;;;;;;;18.30;3.30;;;5.50;99.90;;;;;;5074516;28;20045;-47
2023/01/10 03:58:22;;;;;;;20.35;3.25;;;5.60;99.90;;;;;;5074672;28;20510;-49
2023/01/10 04:00:48;;;;;;;24.52;3.58;;;5.80;99.90;;;;;;5074269;28;20521;-49
2023/01/10 04:03:15;;;;;;;17.40;3.00;;;5.50;99.90;;;;;;5074230;28;20076;-48
2023/01/10 04:05:41;;;;;;;25.77;4.13;;;5.60;99.90;;;;;;5074185;28;20032;-48
2023/01/10 04:08:07;;;;;;;18.45;3.08;;;5.60;99.90;;;;;;5074000;28;20043;-48
2023/01/10 04:10:33;;;;;;;15.80;3.05;;;5.60;99.90;;;;;;5074007;28;20032;-47
2023/01/10 04:13:02;;;;;;;21.85;3.88;;;5.90;99.90;;;;;;5074160;28;20365;-50
2023/01/10 04:15:28;;;;;;;22.27;3.88;;;5.70;99.90;;;;;;5074085;28;20040;-47
2023/01/10 04:17:55;;;;;;;29.05;3.85;;;5.80;99.90;;;;;;5074052;28;20468;-47
2023/01/10 04:20:24;;;;;;;27.00;4.22;;;5.80;99.90;;;;;;5073518;28;20029;-49
2023/01/10 04:22:50;;;;;;;17.90;3.42;;;5.70;99.90;;;;;;5072559;28;20040;-47
2023/01/10 04:25:15;;;;;;;27.52;4.07;;;6.10;99.90;;;;;;5084292;28;20108;-47
2023/01/10 04:27:41;;;;;;;22.92;3.90;;;5.60;99.90;;;;;;5072611;28;20032;-47
2023/01/10 04:30:08;;;;;;;22.42;3.95;;;5.60;99.90;;;;;;5073622;28;20040;-48
2023/01/10 04:32:34;;;;;;;20.30;3.60;;;5.60;99.90;;;;;;5081921;28;20043;-46
2023/01/10 04:34:59;;;;;;;21.05;3.30;;;6.00;99.90;;;;;;5078701;28;20480;-48
2023/01/10 04:37:25;;;;;;;24.52;3.92;;;6.00;99.90;;;;;;5083699;28;20041;-48
2023/01/10 04:39:51;;;;;;;25.45;4.13;;;5.60;99.90;;;;;;5073522;28;20051;-46
2023/01/10 04:42:17;;;;;;;30.10;3.72;;;6.10;99.90;;;;;;5081606;28;20123;-49
2023/01/10 04:44:43;;;;;;;23.60;3.55;;;5.90;99.90;;;;;;5079134;28;20088;-47
2023/01/10 04:47:08;;;;;;;24.83;3.80;;;6.00;99.90;;;;;;5088647;28;20044;-48
2023/01/10 04:49:34;;;;;;;21.15;3.63;;;5.70;99.90;;;;;;5073414;28;20036;-48
2023/01/10 04:52:00;;;;;;;22.00;3.40;;;6.00;99.90;;;;;;5075126;28;20075;-49
2023/01/10 04:54:25;;;;;;;26.85;4.22;;;6.20;99.90;;;;;;5073583;28;20476;-49
2023/01/10 04:56:51;;;;;;;20.20;3.58;;;5.80;99.90;;;;;;5085731;28;20123;-49
2023/01/10 04:59:17;;;;;;;21.67;4.07;;;5.50;99.90;;;;;;5072505;28;20039;-48
2023/01/10 05:01:43;;;;;;;23.70;3.92;;;5.80;99.90;;;;;;5076585;28;20468;-48
2023/01/10 05:04:09;;;;;;;25.42;3.47;;;6.10;99.90;;;;;;5074648;28;20036;-47
2023/01/10 05:06:36;;;;;;;24.67;3.95;;;6.00;99.90;;;;;;5074707;28;20061;-48
2023/01/10 05:09:02;;;;;;;20.50;4.30;;;5.40;99.90;;;;;;5072612;28;20050;-52
2023/01/10 05:11:27;;;;;;;29.27;4.63;;;5.40;99.90;;;;;;5073869;28;20130;-48
2023/01/10 05:13:53;;;;;;;27.55;4.80;;;5.90;99.90;;;;;;5088291;28;20068;-47
2023/01/10 05:16:19;;;;;;;30.42;4.13;;;5.50;99.90;;;;;;5072936;28;20472;-46
2023/01/10 05:18:45;;;;;;;29.73;4.25;;;5.50;99.90;;;;;;5073169;28;20032;-49
2023/01/10 05:21:12;;;;;;;21.65;3.72;;;5.90;99.90;;;;;;5072127;28;20043;-50
2023/01/10 05:23:39;;;;;;;19.45;3.60;;;5.80;99.90;;;;;;5072818;28;20047;-48
2023/01/10 05:26:09;;;;;;;23.13;4.30;;;6.10;99.90;;;;;;5072747;28;20032;-49
2023/01/10 05:28:34;;;;;;;21.35;3.70;;;5.90;99.90;;;;;;5072687;28;20086;-47
2023/01/10 05:31:00;;;;;;;28.58;4.18;;;5.90;99.90;;;;;;5070327;28;20181;-47
2023/01/10 05:33:26;;;;;;;26.92;3.65;;;5.30;99.90;;;;;;5072230;28;20041;-50
2023/01/10 05:35:52;;;;;;;20.83;3.95;;;5.30;99.90;;;;;;5074751;28;20041;-50
2023/01/10 05:38:17;;;;;;;22.45;3.50;;;5.60;99.90;;;;;;5072554;28;20052;-50
2023/01/10 05:40:43;;;;;;;23.15;4.03;;;5.80;99.90;;;;;;5073823;28;20052;-46
2023/01/10 05:43:10;;;;;;;26.15;4.25;;;5.20;99.90;;;;;;5081681;28;20037;-49
2023/01/10 05:45:36;;;;;;;26.85;3.90;;;5.40;99.90;;;;;;5072145;28;20044;-46
2023/01/10 05:48:02;;;;;;;20.05;3.97;;;5.70;99.90;;;;;;5072299;28;20046;-48
2023/01/10 05:50:28;;;;;;;24.20;3.97;;;5.00;99.90;;;;;;5071773;28;20502;-49
2023/01/10 05:52:54;;;;;;;27.20;4.32;;;5.20;99.90;;;;;;5074069;28;20119;-48
2023/01/10 05:55:19;;;;;;;23.08;4.25;;;5.50;99.90;;;;;;5074188;28;20360;-49
2023/01/10 05:57:45;;;;;;;32.83;3.83;;;5.00;99.90;;;;;;5072188;28;20032;-48
2023/01/10 06:00:11;;;;;;;21.92;3.67;;;5.00;99.90;;;;;;5072158;28;20033;-47
2023/01/10 06:02:37;;;;;;;26.60;3.80;;;5.00;99.90;;;;;;5072092;28;20117;-48
2023/01/10 06:05:03;;;;;;;28.23;4.15;;;5.60;99.90;;;;;;5072138;28;20040;-46
2023/01/10 06:07:30;;;;;;;27.58;4.40;;;5.60;99.90;;;;;;5072073;28;20119;-48
2023/01/10 06:09:56;;;;;;;29.85;5.32;;;5.00;99.90;;;;;;5070637;28;20041;-48
2023/01/10 06:12:22;;;;;;;24.95;4.93;;;5.00;99.90;;;;;;5079214;28;20369;-49
2023/01/10 06:14:47;;;;;;;28.42;4.43;;;4.90;99.90;;;;;;5070219;28;20068;-49
2023/01/10 06:17:13;;;;;;;30.67;4.40;;;4.90;99.90;;;;;;5071771;28;20028;-47
2023/01/10 06:19:39;;;;;;;26.88;3.83;;;5.50;99.90;;;;;;5071288;28;20495;-47
2023/01/10 06:22:05;;;;;;;29.63;4.75;;;4.80;99.90;;;;;;5071558;28;20044;-47
2023/01/10 06:24:30;;;;;;;17.10;3.92;;;4.80;99.90;;;;;;5071327;28;20036;-50
2023/01/10 06:26:56;;;;;;;23.67;4.00;;;4.90;99.90;;;;;;5071449;28;20052;-49
2023/01/10 06:29:22;;;;;;;26.70;3.95;;;5.20;99.90;;;;;;5071404;28;20202;-49
2023/01/10 06:31:47;;;;;;;24.27;3.55;;;5.20;99.90;;;;;;5071578;28;20259;-46
2023/01/10 06:34:13;;;;;;;28.17;3.83;;;5.30;99.90;;;;;;5071426;28;20049;-50
2023/01/10 06:36:39;;;;;;;27.10;4.15;;;5.40;99.90;;;;;;5071173;28;20468;-49
2023/01/10 06:39:04;;;;;;;30.83;4.55;;;5.50;99.90;;;;;;5083699;28;20157;-46
2023/01/10 06:41:30;;;;;;;23.17;3.60;;;4.80;99.90;;;;;;5071407;28;20044;-47
2023/01/10 06:43:56;;;;;;;23.42;4.53;;;4.90;99.90;;;;;;5073030;28;20041;-46
2023/01/10 06:46:21;;;;;;;27.38;4.25;;;5.00;99.90;;;;;;5081392;28;20040;-47
2023/01/10 06:48:47;;;;;;;25.92;4.95;;;5.40;99.90;;;;;;5073182;28;20032;-48
2023/01/10 06:51:14;;;;;;;24.17;4.47;;;5.70;99.90;;;;;;5071185;28;20032;-46
2023/01/10 06:53:40;;;;;;;23.92;4.15;;;5.50;99.90;;;;;;5069667;28;20040;-48
2023/01/10 06:56:08;;;;;;;22.63;5.85;;;5.10;99.90;;;;;;5071477;28;20131;-50
2023/01/10 06:58:34;;;;;;;26.48;4.95;;;5.20;99.90;;;;;;5071088;28;20503;-48
2023/01/10 07:01:00;;;;;;;21.55;4.55;;;5.80;99.90;;;;;;5070658;28;20045;-48
2023/01/10 07:03:26;;;;;;;30.92;4.78;;;5.80;99.90;;;;;;5070747;28;20048;-48
2023/01/10 07:05:51;;;;;;;24.13;4.00;;;5.90;99.90;;;;;;5070610;28;20105;-47
2023/01/10 07:08:17;;;;;;;33.60;5.07;;;5.80;99.90;;;;;;5075047;28;20038;-47
2023/01/10 07:10:43;;;;;;;26.13;4.43;;;5.10;99.90;;;;;;5072301;28;20032;-48
2023/01/10 07:13:09;;;;;;;28.85;4.55;;;5.10;99.90;;;;;;5079069;28;20499;-46
2023/01/10 07:15:35;;;;;;;27.55;3.92;;;5.00;99.90;;;;;;5071005;28;20076;-47
2023/01/10 07:18:01;;;;;;;29.90;4.45;;;5.80;99.90;;;;;;5070949;28;20357;-49
2023/01/10 07:20:27;;;;;;;21.25;4.15;;;5.70;99.90;;;;;;5070569;28;20085;-50
2023/01/10 07:22:55;;;;;;;30.42;4.50;;;5.10;99.90;;;;;;5070124;28;20119;-48
2023/01/10 07:25:21;;;;;;;30.17;4.90;;;5.30;99.90;;;;;;5070892;28;20107;-46
2023/01/10 07:27:47;;;;;;;23.50;4.93;;;5.50;99.90;;;;;;5070857;28;20032;-50
2023/01/10 07:30:13;;;;;;;26.33;4.78;;;5.00;99.90;;;;;;5070573;28;20529;-46
2023/01/10 07:32:38;;;;;;;24.17;4.30;;;4.90;99.90;;;;;;5070351;28;20043;-46
2023/01/10 07:35:04;;;;;;;36.40;5.20;;;5.80;99.90;;;;;;5070785;28;20036;-45
2023/01/10 07:37:30;;;;;;;24.92;4.32;;;5.50;99.90;;;;;;5068921;28;20032;-48
2023/01/10 07:39:56;;;;;;;30.20;4.10;;;5.20;99.90;;;;;;5075902;28;20045;-47
2023/01/10 07:42:21;;;;;;;21.35;3.80;;;5.10;99.90;;;;;;5077272;28;20119;-47
2023/01/10 07:44:47;;;;;;;25.90;4.78;;;5.50;99.90;;;;;;5081847;28;20029;-46
2023/01/10 07:47:13;;;;;;;28.52;4.32;;;4.80;99.90;;;;;;5070596;28;20587;-47
2023/01/10 07:49:39;;;;;;;29.55;4.25;;;4.90;99.90;;;;;;5070588;28;20032;-47
2023/01/10 07:52:07;;;;;;;25.00;4.85;;;5.40;99.90;;;;;;5070674;28;20130;-48
2023/01/10 07:54:34;;;;;;;34.13;5.00;;;5.20;99.90;;;;;;5070473;28;20048;-48
2023/01/10 07:57:00;;;;;;;25.50;4.38;;;4.80;99.90;;;;;;5082708;28;20058;-48
2023/01/10 07:59:25;;;;;;;28.52;5.38;;;5.30;99.90;;;;;;5081620;28;20041;-46
2023/01/10 08:01:52;;;;;;;21.13;3.95;;;4.60;99.90;;;;;;5069865;28;20047;-51
2023/01/10 08:04:18;;;;;;;26.23;4.30;;;5.20;99.90;;;;;;5070405;28;20468;-49
2023/01/10 08:06:44;;;;;;;37.75;4.85;;;5.40;99.90;;;;;;5059135;28;20562;-48
2023/01/10 08:09:10;;;;;;;30.67;4.88;;;5.30;99.90;;;;;;5060320;28;20052;-51
2023/01/10 08:11:36;;;;;;;28.10;5.55;;;5.20;99.90;;;;;;5056808;28;20365;-50
2023/01/10 08:14:01;;;;;;;25.50;4.18;;;6.50;99.90;;;;;;5060649;28;20049;-49
2023/01/10 08:16:27;;;;;;;21.33;4.10;;;5.00;99.90;;;;;;5042145;28;20051;-48
2023/01/10 08:18:53;;;;;;;26.65;4.68;;;5.70;99.90;;;;;;5058866;28;20028;-49
2023/01/10 08:21:18;;;;;;;38.30;5.28;;;5.80;99.90;;;;;;5058338;28;20484;-49
2023/01/10 08:23:44;;;;;;;25.83;4.60;;;5.10;99.90;;;;;;5058720;28;20048;-48
2023/01/10 08:26:10;;;;;;;33.25;6.15;;;5.20;99.90;;;;;;5057949;28;20435;-49
2023/01/10 08:28:36;;;;;;;38.47;5.05;;;5.90;99.90;;;;;;5058077;28;20041;-46
2023/01/10 08:31:06;;;;;;;23.30;4.50;;;5.80;99.90;;;;;;5057404;28;20040;-48
2023/01/10 08:33:32;;;;;;;27.88;5.32;;;6.00;99.90;;;;;;5058955;28;20036;-46
2023/01/10 08:35:58;;;;;;;26.30;5.55;;;6.10;99.90;;;;;;5061440;28;20040;-47
2023/01/10 08:38:24;;;;;;;34.22;5.40;;;6.00;99.90;;;;;;5061331;28;20056;-48
2023/01/10 08:40:49;;;;;;;29.67;5.18;;;6.20;99.90;;;;;;5061064;28;20064;-47
2023/01/10 08:43:15;;;;;;;27.33;6.28;;;5.90;99.90;;;;;;5061998;28;20041;-48
2023/01/10 08:45:41;;;;;;;30.95;5.68;;;5.60;99.90;;;;;;5061335;28;20423;-46
2023/01/10 08:48:08;;;;;;;40.13;5.97;;;6.50;99.90;;;;;;5062492;28;20043;-46
2023/01/10 08:50:34;;;;;;;29.15;4.55;;;6.00;99.90;;;;;;5061853;28;20119;-50
2023/01/10 08:53:00;;;;;;;35.42;6.32;;;6.20;99.90;;;;;;5061685;28;20495;-47
2023/01/10 08:55:27;;;;;;;23.13;4.72;;;5.80;99.90;;;;;;5063530;28;20484;-50
2023/01/10 08:57:53;;;;;;;27.20;4.70;;;6.10;99.90;;;;;;5062398;28;20044;-48
2023/01/10 09:00:20;;;;;;;32.25;5.95;;;6.10;99.90;;;;;;5062163;28;20036;-48
2023/01/10 09:02:45;;;;;;;28.67;5.65;;;6.20;99.90;;;;;;5060242;28;20111;-49
2023/01/10 09:05:11;;;;;;;22.25;4.78;;;5.80;99.90;;;;;;5060607;28;20185;-46
2023/01/10 09:07:37;;;;;;;26.55;5.45;;;6.40;99.90;;;;;;5060454;28;20063;-46
2023/01/10 09:10:04;;;;;;;25.23;5.50;;;6.30;99.90;;;;;;5052183;28;20044;-48
2023/01/10 09:15:13;;;;;;;30.23;5.32;;;6.50;99.90;;;;;;5055697;28;20488;-49
2023/01/10 09:17:39;;;;;;;33.95;5.45;;;6.00;99.90;;;;;;5054700;28;20029;-49
2023/01/10 09:20:08;;;;;;;26.90;5.13;;;6.20;99.90;;;;;;5051523;28;20125;-47
2023/01/10 09:22:35;;;;;;;27.95;5.55;;;6.50;99.90;;;;;;5055013;28;20064;-49
2023/01/10 09:25:02;;;;;;;25.02;5.65;;;6.60;99.90;;;;;;5060070;28;20029;-48
2023/01/10 09:27:28;;;;;;;27.50;5.43;;;6.40;99.90;;;;;;5058971;28;20040;-48
2023/01/10 09:29:53;;;;;;;29.55;5.53;;;6.60;99.90;;;;;;5060029;28;20025;-47
2023/01/10 09:32:19;;;;;;;29.48;5.75;;;6.30;99.90;;;;;;5059670;28;20047;-49
2023/01/10 09:34:45;;;;;;;29.17;5.30;;;6.70;99.90;;;;;;5061134;28;20079;-53
2023/01/10 09:37:10;;;;;;;23.27;5.65;;;6.30;99.90;;;;;;5060336;28;20388;-50
2023/01/10 09:39:36;;;;;;;30.95;6.20;;;6.70;99.90;;;;;;5058368;28;20064;-47
2023/01/10 09:42:27;;;;;;;33.83;7.70;;;6.80;99.90;;;;;;5076428;28;20126;-50
2023/01/10 09:44:55;;;;;;;32.58;7.10;;;6.60;99.90;;;;;;5058901;28;20048;-47
2023/01/10 09:47:44;;;;;;;34.38;5.95;;;6.80;99.90;;;;;;5052686;28;20041;-49
2023/01/10 09:50:41;;;;;;;33.50;6.07;;;6.40;99.90;;;;;;5048194;28;20040;-48
2023/01/10 09:53:21;;;;;;;26.33;6.28;;;6.50;99.90;;;;;;5059183;28;20037;-49
2023/01/10 09:55:56;;;;;;;31.08;6.70;;;6.60;99.90;;;;;;5061419;28;20040;-49
2023/01/10 09:58:27;;;;;;;27.20;6.95;;;6.80;99.90;;;;;;5062465;28;20139;-49
2023/01/10 10:01:04;;;;;;;26.95;7.63;;;6.80;99.90;;;;;;5061457;28;20408;-48
2023/01/10 10:04:01;;;;;;;31.33;8.60;;;6.50;99.90;;;;;;5061688;28;20091;-48
2023/01/10 10:06:27;;;;;;;33.97;8.50;;;6.60;99.90;;;;;;5058817;28;20031;-47
2023/01/10 10:08:53;;;;;;;37.40;9.07;;;6.70;99.90;;;;;;5060025;28;20029;-50
2023/01/10 10:11:25;;;;;;;36.65;8.75;;;6.80;99.90;;;;;;5060995;28;20043;-47
2023/01/10 10:14:14;;;;;;;29.67;8.85;;;6.50;99.90;;;;;;5061255;28;20040;-48
2023/01/10 10:16:45;;;;;;;34.53;8.82;;;6.80;99.90;;;;;;5062096;28;20032;-47
2023/01/10 10:19:29;;;;;;;31.45;8.57;;;6.70;99.90;;;;;;5059596;28;20047;-49
2023/01/10 10:21:58;;;;;;;26.52;7.82;;;6.50;99.90;;;;;;5059415;28;20040;-46
2023/01/10 10:24:34;;;;;;;25.45;7.75;;;6.60;99.90;;;;;;5057951;28;20487;-51
2023/01/10 10:27:29;;;;;;;35.20;8.68;;;6.60;99.90;;;;;;5061710;28;20044;-47
2023/01/10 10:30:34;;;;;;;35.63;8.38;;;6.70;99.90;;;;;;5059452;28;20358;-47
2023/01/10 10:33:15;;;;;;;31.38;8.65;;;6.70;99.90;;;;;;5057695;28;20037;-46
2023/01/10 10:35:48;;;;;;;31.73;8.65;;;6.50;99.90;;;;;;5057162;28;20428;-48
2023/01/10 10:38:23;;;;;;;27.63;8.38;;;6.70;99.90;;;;;;5058013;28;20049;-49
2023/01/10 10:40:51;;;;;;;36.42;8.80;;;6.60;99.90;;;;;;5056097;28;20063;-48
2023/01/10 10:43:20;;;;;;;34.42;8.48;;;6.60;99.90;;;;;;5058408;28;20521;-47
2023/01/10 10:45:59;;;;;;;30.08;8.63;;;6.40;99.90;;;;;;5060904;28;20042;-48
2023/01/10 10:48:28;;;;;;;30.70;8.77;;;6.70;99.90;;;;;;5061061;28;20028;-46
2023/01/10 10:51:15;;;;;;;31.73;8.43;;;6.50;99.90;;;;;;5059104;28;20028;-50
2023/01/10 10:53:41;;;;;;;30.90;7.80;;;6.60;99.90;;;;;;5055606;28;20122;-46
2023/01/10 10:56:13;;;;;;;37.33;8.85;;;6.60;99.90;;;;;;5058682;28;20522;-49
2023/01/10 10:58:42;;;;;;;25.27;7.22;;;6.50;99.90;;;;;;5057746;28;20610;-50
2023/01/10 11:01:13;;;;;;;28.50;7.95;;;6.50;99.90;;;;;;5059249;28;20136;-47
2023/01/10 11:03:47;;;;;;;33.05;8.40;;;6.60;99.90;;;;;;5059329;28;20066;-46
2023/01/10 11:06:14;;;;;;;29.02;7.82;;;6.50;99.90;;;;;;5056444;28;20036;-46
2023/01/10 11:08:44;;;;;;;31.05;7.30;;;6.50;99.90;;;;;;5058283;28;20034;-51
2023/01/10 11:11:35;;;;;;;35.75;7.80;;;6.70;99.90;;;;;;5059542;28;20036;-51
2023/01/10 11:14:03;;;;;;;28.95;6.88;;;6.60;99.90;;;;;;5057287;28;20445;-48
2023/01/10 11:16:31;;;;;;;25.90;6.90;;;6.60;99.90;;;;;;5059015;28;20037;-49
2023/01/10 11:19:15;;;;;;;22.08;6.45;;;6.50;99.90;;;;;;5058870;28;20124;-50
2023/01/10 11:21:47;;;;;;;28.70;6.40;;;6.50;99.90;;;;;;5058659;28;20490;-48
2023/01/10 11:24:26;;;;;;;29.55;6.82;;;6.50;99.90;;;;;;5057131;28;20036;-49
2023/01/10 11:26:53;;;;;;;29.05;6.47;;;6.60;99.90;;;;;;5057472;28;20028;-53
2023/01/10 11:29:43;;;;;;;29.10;7.13;;;7.40;99.90;;;;;;5055554;28;20048;-47
2023/01/10 11:32:18;;;;;;;27.95;6.90;;;6.50;99.90;;;;;;5058006;28;20243;-50
2023/01/10 11:34:52;;;;;;;30.02;6.35;;;6.60;99.90;;;;;;5057641;28;20032;-48
2023/01/10 11:37:31;;;;;;;32.53;7.13;;;6.60;99.90;;;;;;5057275;28;20103;-47
2023/01/10 11:40:19;;;;;;;37.15;7.78;;;6.70;99.90;;;;;;5065061;28;20057;-48
2023/01/10 11:42:46;;;;;;;25.85;5.60;;;6.60;99.90;;;;;;5068754;28;20072;-50
2023/01/10 11:45:18;;;;;;;30.63;7.15;;;6.60;99.90;;;;;;5068003;28;20040;-50
2023/01/10 11:48:04;;;;;;;29.73;6.50;;;6.50;99.90;;;;;;5069796;28;20375;-49
2023/01/10 11:50:33;;;;;;;24.65;6.65;;;6.60;99.90;;;;;;5072970;28;20033;-51
2023/01/10 11:52:59;;;;;;;29.98;7.35;;;6.50;99.90;;;;;;5070577;28;20403;-49
2023/01/10 11:55:30;;;;;;;25.40;6.82;;;6.70;99.90;;;;;;5068008;28;20036;-50
2023/01/10 11:58:01;;;;;;;25.98;7.20;;;6.60;99.90;;;;;;5069269;28;20067;-50
2023/01/10 12:00:45;;;;;;;25.25;6.70;;;6.60;99.90;;;;;;5070540;28;20383;-48
2023/01/10 12:03:28;;;;;;;22.85;6.20;;;6.50;99.90;;;;;;5070240;28;20044;-51
2023/01/10 12:05:58;;;;;;;21.30;6.00;;;6.50;99.90;;;;;;5070297;28;20037;-48
2023/01/10 12:08:25;;;;;;;26.38;5.82;;;6.60;99.90;;;;;;5073056;28;20033;-49
2023/01/10 12:11:18;;;;;;;27.08;6.80;;;6.50;99.90;;;;;;5076719;28;20037;-49
2023/01/10 12:13:46;;;;;;;27.17;6.60;;;6.50;99.90;;;;;;5069825;28;20045;-49
2023/01/10 12:16:20;;;;;;;25.98;6.53;;;6.50;99.90;;;;;;5074077;28;20033;-49
2023/01/10 12:18:48;;;;;;;30.52;6.85;;;6.60;99.90;;;;;;5074250;28;20045;-50
2023/01/10 12:21:18;;;;;;;28.70;6.57;;;6.40;99.90;;;;;;5074090;28;20535;-52
2023/01/10 12:23:46;;;;;;;31.30;6.20;;;6.40;99.90;;;;;;5073894;28;20047;-48
2023/01/10 12:26:13;;;;;;;26.52;5.45;;;6.40;99.90;;;;;;5072507;28;20048;-47
2023/01/10 12:28:44;;;;;;;24.42;5.28;;;6.40;99.90;;;;;;5073440;28;20048;-47
2023/01/10 12:31:13;;;;;;;26.60;6.10;;;6.40;99.90;;;;;;5073832;28;20047;-46
2023/01/10 12:33:45;;;;;;;25.33;5.97;;;6.50;99.90;;;;;;5073690;28;20048;-47
2023/01/10 12:36:51;;;;;;;26.17;5.80;;;6.40;99.90;;;;;;5073395;28;20040;-48
2023/01/10 12:39:35;;;;;;;26.00;5.60;;;6.40;99.90;;;;;;5073366;28;20109;-49
2023/01/10 12:45:05;;;;;;;23.42;5.13;;;6.30;99.90;;;;;;5072515;28;20086;-46
2023/01/10 12:47:46;;;;;;;21.85;5.18;;;6.30;99.90;;;;;;5073593;28;20028;-49
2023/01/10 12:50:36;;;;;;;24.35;5.05;;;6.30;99.90;;;;;;5078546;28;20506;-49
2023/01/10 12:53:34;;;;;;;24.00;5.80;;;6.30;99.90;;;;;;5072888;28;20044;-48
2023/01/10 12:56:04;;;;;;;23.73;5.47;;;6.20;99.90;;;;;;5074658;28;20067;-49
2023/01/10 12:58:45;;;;;;;26.25;4.82;;;6.20;99.90;;;;;;5073611;28;20116;-47
2023/01/10 13:01:17;;;;;;;23.25;5.10;;;6.30;99.90;;;;;;5072775;28;20068;-50
2023/01/10 13:03:48;;;;;;;27.38;5.03;;;6.30;99.90;;;;;;5072588;28;20048;-51
2023/01/10 13:06:36;;;;;;;22.85;5.45;;;6.30;99.90;;;;;;5072772;28;20063;-49
2023/01/10 13:09:06;;;;;;;25.17;4.78;;;6.20;99.90;;;;;;5072792;28;20098;-52
2023/01/10 13:11:45;;;;;;;22.95;3.83;;;6.30;99.90;;;;;;5073300;28;20029;-48
2023/01/10 13:14:15;;;;;;;25.15;5.20;;;6.20;99.90;;;;;;5072832;28;20388;-50
2023/01/10 13:17:25;;;;;;;27.33;4.70;;;6.30;99.90;;;;;;5076100;28;20060;-47
2023/01/10 13:20:16;;;;;;;20.98;4.10;;;6.20;99.90;;;;;;5069535;28;20094;-47